sensor_id;sensor_type;location;lat;lon;timestamp;P1;durP1;ratioP1;P2;durP2;ratioP2
4464;SDS011;2245;48.136;13.428;2024-01-07T00:00:51;1.43;;;1.33;;
4464;SDS011;2245;48.136;13.428;2024-01-07T00:03:17;0.70;;;0.70;;
4464;SDS011;2245;48.136;13.428;2024-01-07T00:05:44;0.90;;;0.90;;
4464;SDS011;2245;48.136;13.428;2024-01-07T00:08:13;1.00;;;0.77;;
4464;SDS011;2245;48.136;13.428;2024-01-07T00:10:40;1.73;;;1.00;;
4464;SDS011;2245;48.136;13.428;2024-01-07T00:13:07;1.33;;;1.23;;
4464;SDS011;2245;48.136;13.428;2024-01-07T00:15:34;1.27;;;1.00;;
4464;SDS011;2245;48.136;13.428;2024-01-07T00:18:01;1.10;;;1.00;;
4464;SDS011;2245;48.136;13.428;2024-01-07T00:20:28;0.77;;;0.77;;
4464;SDS011;2245;48.136;13.428;2024-01-07T00:22:55;1.23;;;1.13;;
4464;SDS011;2245;48.136;13.428;2024-01-07T00:25:24;0.67;;;0.60;;
4464;SDS011;2245;48.136;13.428;2024-01-07T00:27:51;0.90;;;0.90;;
4464;SDS011;2245;48.136;13.428;2024-01-07T00:30:20;1.00;;;1.00;;
4464;SDS011;2245;48.136;13.428;2024-01-07T00:32:47;0.90;;;0.90;;
4464;SDS011;2245;48.136;13.428;2024-01-07T00:35:16;0.93;;;0.90;;
4464;SDS011;2245;48.136;13.428;2024-01-07T00:37:43;2.20;;;1.37;;
4464;SDS011;2245;48.136;13.428;2024-01-07T00:40:11;0.93;;;0.93;;
4464;SDS011;2245;48.136;13.428;2024-01-07T00:42:40;1.60;;;1.30;;
4464;SDS011;2245;48.136;13.428;2024-01-07T00:45:07;0.83;;;0.70;;
4464;SDS011;2245;48.136;13.428;2024-01-07T00:47:35;1.10;;;0.70;;
4464;SDS011;2245;48.136;13.428;2024-01-07T00:50:02;1.00;;;1.00;;
4464;SDS011;2245;48.136;13.428;2024-01-07T00:52:30;0.80;;;0.80;;
4464;SDS011;2245;48.136;13.428;2024-01-07T00:54:57;0.80;;;0.80;;
4464;SDS011;2245;48.136;13.428;2024-01-07T00:57:24;2.27;;;1.00;;
4464;SDS011;2245;48.136;13.428;2024-01-07T00:59:53;1.10;;;1.00;;
4464;SDS011;2245;48.136;13.428;2024-01-07T01:02:20;0.70;;;0.70;;
4464;SDS011;2245;48.136;13.428;2024-01-07T01:04:47;0.80;;;0.80;;
4464;SDS011;2245;48.136;13.428;2024-01-07T01:07:14;1.27;;;0.90;;
4464;SDS011;2245;48.136;13.428;2024-01-07T01:09:41;1.00;;;1.00;;
4464;SDS011;2245;48.136;13.428;2024-01-07T01:12:08;1.17;;;0.93;;
4464;SDS011;2245;48.136;13.428;2024-01-07T01:14:35;1.30;;;1.20;;
4464;SDS011;2245;48.136;13.428;2024-01-07T01:17:04;0.93;;;0.90;;
4464;SDS011;2245;48.136;13.428;2024-01-07T01:19:31;1.23;;;1.13;;
4464;SDS011;2245;48.136;13.428;2024-01-07T01:21:58;1.23;;;1.20;;
4464;SDS011;2245;48.136;13.428;2024-01-07T01:24:25;1.03;;;1.03;;
4464;SDS011;2245;48.136;13.428;2024-01-07T01:26:52;1.13;;;1.03;;
4464;SDS011;2245;48.136;13.428;2024-01-07T01:29:19;1.10;;;1.00;;
4464;SDS011;2245;48.136;13.428;2024-01-07T01:31:46;0.93;;;0.93;;
4464;SDS011;2245;48.136;13.428;2024-01-07T01:34:14;1.00;;;0.90;;
4464;SDS011;2245;48.136;13.428;2024-01-07T01:36:41;1.27;;;0.80;;
4464;SDS011;2245;48.136;13.428;2024-01-07T01:39:08;0.80;;;0.80;;
4464;SDS011;2245;48.136;13.428;2024-01-07T01:41:35;0.80;;;0.80;;
4464;SDS011;2245;48.136;13.428;2024-01-07T01:44:02;1.03;;;0.90;;
4464;SDS011;2245;48.136;13.428;2024-01-07T01:46:29;2.20;;;1.17;;
4464;SDS011;2245;48.136;13.428;2024-01-07T01:48:56;2.70;;;1.43;;
4464;SDS011;2245;48.136;13.428;2024-01-07T01:51:25;0.90;;;0.90;;
4464;SDS011;2245;48.136;13.428;2024-01-07T01:53:52;1.03;;;1.03;;
4464;SDS011;2245;48.136;13.428;2024-01-07T01:56:22;0.90;;;0.90;;
4464;SDS011;2245;48.136;13.428;2024-01-07T01:58:51;0.97;;;0.97;;
4464;SDS011;2245;48.136;13.428;2024-01-07T02:01:19;0.80;;;0.80;;
4464;SDS011;2245;48.136;13.428;2024-01-07T02:03:46;1.00;;;1.00;;
4464;SDS011;2245;48.136;13.428;2024-01-07T02:06:15;2.17;;;1.00;;
4464;SDS011;2245;48.136;13.428;2024-01-07T02:08:46;1.17;;;1.07;;
4464;SDS011;2245;48.136;13.428;2024-01-07T02:11:14;1.30;;;1.20;;
4464;SDS011;2245;48.136;13.428;2024-01-07T02:13:42;2.10;;;1.30;;
4464;SDS011;2245;48.136;13.428;2024-01-07T02:16:09;2.20;;;1.80;;
4464;SDS011;2245;48.136;13.428;2024-01-07T02:18:36;3.10;;;2.07;;
4464;SDS011;2245;48.136;13.428;2024-01-07T02:21:04;4.83;;;3.23;;
4464;SDS011;2245;48.136;13.428;2024-01-07T02:23:31;196.83;;;71.87;;
4464;SDS011;2245;48.136;13.428;2024-01-07T02:25:59;113.50;;;47.73;;
4464;SDS011;2245;48.136;13.428;2024-01-07T02:28:26;330.13;;;136.83;;
4464;SDS011;2245;48.136;13.428;2024-01-07T02:30:54;167.80;;;68.20;;
4464;SDS011;2245;48.136;13.428;2024-01-07T02:33:21;243.87;;;91.57;;
4464;SDS011;2245;48.136;13.428;2024-01-07T02:35:48;87.10;;;35.47;;
4464;SDS011;2245;48.136;13.428;2024-01-07T02:38:15;43.53;;;25.00;;
4464;SDS011;2245;48.136;13.428;2024-01-07T02:40:42;7.63;;;5.17;;
4464;SDS011;2245;48.136;13.428;2024-01-07T02:43:10;1.60;;;1.50;;
4464;SDS011;2245;48.136;13.428;2024-01-07T02:45:37;2.53;;;2.20;;
4464;SDS011;2245;48.136;13.428;2024-01-07T02:48:06;18.27;;;14.40;;
4464;SDS011;2245;48.136;13.428;2024-01-07T02:50:33;11.47;;;9.07;;
4464;SDS011;2245;48.136;13.428;2024-01-07T02:53:00;29.97;;;17.10;;
4464;SDS011;2245;48.136;13.428;2024-01-07T02:55:27;30.03;;;17.53;;
4464;SDS011;2245;48.136;13.428;2024-01-07T02:57:54;19.23;;;12.33;;
4464;SDS011;2245;48.136;13.428;2024-01-07T03:00:23;8.30;;;4.93;;
4464;SDS011;2245;48.136;13.428;2024-01-07T03:02:50;36.03;;;22.60;;
4464;SDS011;2245;48.136;13.428;2024-01-07T03:05:18;26.70;;;17.23;;
4464;SDS011;2245;48.136;13.428;2024-01-07T03:07:45;14.90;;;10.07;;
4464;SDS011;2245;48.136;13.428;2024-01-07T03:10:12;3.50;;;3.30;;
4464;SDS011;2245;48.136;13.428;2024-01-07T03:12:39;2.40;;;1.73;;
4464;SDS011;2245;48.136;13.428;2024-01-07T03:15:06;1.37;;;1.37;;
4464;SDS011;2245;48.136;13.428;2024-01-07T03:17:35;1.70;;;1.40;;
4464;SDS011;2245;48.136;13.428;2024-01-07T03:20:02;1.30;;;1.27;;
4464;SDS011;2245;48.136;13.428;2024-01-07T03:22:30;1.47;;;1.37;;
4464;SDS011;2245;48.136;13.428;2024-01-07T03:24:57;1.60;;;1.50;;
4464;SDS011;2245;48.136;13.428;2024-01-07T03:27:24;1.37;;;1.27;;
4464;SDS011;2245;48.136;13.428;2024-01-07T03:29:51;1.00;;;1.00;;
4464;SDS011;2245;48.136;13.428;2024-01-07T03:32:18;1.80;;;1.67;;
4464;SDS011;2245;48.136;13.428;2024-01-07T03:34:46;3.50;;;2.27;;
4464;SDS011;2245;48.136;13.428;2024-01-07T03:37:13;2.47;;;2.27;;
4464;SDS011;2245;48.136;13.428;2024-01-07T03:39:40;2.67;;;2.47;;
4464;SDS011;2245;48.136;13.428;2024-01-07T03:42:07;1.57;;;1.47;;
4464;SDS011;2245;48.136;13.428;2024-01-07T03:44:36;2.43;;;2.30;;
4464;SDS011;2245;48.136;13.428;2024-01-07T03:47:04;3.13;;;2.33;;
4464;SDS011;2245;48.136;13.428;2024-01-07T03:49:31;4.80;;;2.83;;
4464;SDS011;2245;48.136;13.428;2024-01-07T03:52:00;2.93;;;2.60;;
4464;SDS011;2245;48.136;13.428;2024-01-07T03:54:27;2.33;;;2.13;;
4464;SDS011;2245;48.136;13.428;2024-01-07T03:56:54;2.47;;;2.27;;
4464;SDS011;2245;48.136;13.428;2024-01-07T03:59:21;2.60;;;2.40;;
4464;SDS011;2245;48.136;13.428;2024-01-07T04:01:50;2.73;;;2.53;;
4464;SDS011;2245;48.136;13.428;2024-01-07T04:04:17;3.60;;;3.20;;
4464;SDS011;2245;48.136;13.428;2024-01-07T04:06:44;3.20;;;2.90;;
4464;SDS011;2245;48.136;13.428;2024-01-07T04:09:12;2.67;;;2.47;;
4464;SDS011;2245;48.136;13.428;2024-01-07T04:11:39;4.87;;;3.50;;
4464;SDS011;2245;48.136;13.428;2024-01-07T04:14:07;5.93;;;3.87;;
4464;SDS011;2245;48.136;13.428;2024-01-07T04:16:34;4.17;;;3.77;;
4464;SDS011;2245;48.136;13.428;2024-01-07T04:19:01;3.50;;;3.20;;
4464;SDS011;2245;48.136;13.428;2024-01-07T04:21:28;3.67;;;3.27;;
4464;SDS011;2245;48.136;13.428;2024-01-07T04:23:55;5.20;;;4.30;;
4464;SDS011;2245;48.136;13.428;2024-01-07T04:26:23;6.80;;;4.73;;
4464;SDS011;2245;48.136;13.428;2024-01-07T04:28:50;4.80;;;3.80;;
4464;SDS011;2245;48.136;13.428;2024-01-07T04:31:17;6.67;;;4.87;;
4464;SDS011;2245;48.136;13.428;2024-01-07T04:33:44;4.67;;;3.73;;
4464;SDS011;2245;48.136;13.428;2024-01-07T04:36:13;7.03;;;4.60;;
4464;SDS011;2245;48.136;13.428;2024-01-07T04:38:44;5.80;;;4.80;;
4464;SDS011;2245;48.136;13.428;2024-01-07T04:41:11;5.00;;;4.10;;
4464;SDS011;2245;48.136;13.428;2024-01-07T04:43:39;5.07;;;4.30;;
4464;SDS011;2245;48.136;13.428;2024-01-07T04:46:06;8.10;;;6.13;;
4464;SDS011;2245;48.136;13.428;2024-01-07T04:48:35;5.07;;;4.57;;
4464;SDS011;2245;48.136;13.428;2024-01-07T04:51:02;5.17;;;4.47;;
4464;SDS011;2245;48.136;13.428;2024-01-07T04:53:30;4.50;;;3.73;;
4464;SDS011;2245;48.136;13.428;2024-01-07T04:55:57;5.20;;;4.43;;
4464;SDS011;2245;48.136;13.428;2024-01-07T04:58:24;4.70;;;3.70;;
4464;SDS011;2245;48.136;13.428;2024-01-07T05:00:52;8.10;;;5.50;;
4464;SDS011;2245;48.136;13.428;2024-01-07T05:03:19;5.30;;;4.23;;
4464;SDS011;2245;48.136;13.428;2024-01-07T05:05:46;7.90;;;5.70;;
4464;SDS011;2245;48.136;13.428;2024-01-07T05:08:13;6.97;;;4.47;;
4464;SDS011;2245;48.136;13.428;2024-01-07T05:10:40;5.83;;;4.57;;
4464;SDS011;2245;48.136;13.428;2024-01-07T05:13:07;6.37;;;4.83;;
4464;SDS011;2245;48.136;13.428;2024-01-07T05:15:35;4.67;;;4.20;;
4464;SDS011;2245;48.136;13.428;2024-01-07T05:18:04;7.03;;;4.90;;
4464;SDS011;2245;48.136;13.428;2024-01-07T05:20:33;7.90;;;5.70;;
4464;SDS011;2245;48.136;13.428;2024-01-07T05:23:00;7.40;;;5.00;;
4464;SDS011;2245;48.136;13.428;2024-01-07T05:25:27;10.40;;;6.27;;
4464;SDS011;2245;48.136;13.428;2024-01-07T05:27:54;12.77;;;7.20;;
4464;SDS011;2245;48.136;13.428;2024-01-07T05:30:21;5.03;;;4.47;;
4464;SDS011;2245;48.136;13.428;2024-01-07T05:32:49;7.20;;;5.30;;
4464;SDS011;2245;48.136;13.428;2024-01-07T05:35:17;7.37;;;5.10;;
4464;SDS011;2245;48.136;13.428;2024-01-07T05:37:44;5.37;;;3.67;;
4464;SDS011;2245;48.136;13.428;2024-01-07T05:40:11;5.47;;;4.57;;
4464;SDS011;2245;48.136;13.428;2024-01-07T05:42:37;14.50;;;6.77;;
4464;SDS011;2245;48.136;13.428;2024-01-07T05:45:05;12.07;;;8.20;;
4464;SDS011;2245;48.136;13.428;2024-01-07T05:47:33;14.30;;;8.07;;
4464;SDS011;2245;48.136;13.428;2024-01-07T05:50:00;13.20;;;8.90;;
4464;SDS011;2245;48.136;13.428;2024-01-07T05:52:29;14.00;;;7.87;;
4464;SDS011;2245;48.136;13.428;2024-01-07T05:54:56;11.20;;;7.80;;
4464;SDS011;2245;48.136;13.428;2024-01-07T05:57:23;14.20;;;8.60;;
4464;SDS011;2245;48.136;13.428;2024-01-07T05:59:50;15.07;;;6.47;;
4464;SDS011;2245;48.136;13.428;2024-01-07T06:02:17;9.10;;;6.67;;
4464;SDS011;2245;48.136;13.428;2024-01-07T06:04:44;10.30;;;5.90;;
4464;SDS011;2245;48.136;13.428;2024-01-07T06:07:12;8.60;;;6.17;;
4464;SDS011;2245;48.136;13.428;2024-01-07T06:09:40;9.07;;;5.73;;
4464;SDS011;2245;48.136;13.428;2024-01-07T06:12:07;9.07;;;6.20;;
4464;SDS011;2245;48.136;13.428;2024-01-07T06:14:34;8.20;;;6.50;;
4464;SDS011;2245;48.136;13.428;2024-01-07T06:17:03;11.47;;;8.60;;
4464;SDS011;2245;48.136;13.428;2024-01-07T06:19:30;10.70;;;7.20;;
4464;SDS011;2245;48.136;13.428;2024-01-07T06:21:57;10.20;;;7.00;;
4464;SDS011;2245;48.136;13.428;2024-01-07T06:24:24;10.00;;;7.00;;
4464;SDS011;2245;48.136;13.428;2024-01-07T06:26:53;9.80;;;7.13;;
4464;SDS011;2245;48.136;13.428;2024-01-07T06:29:20;10.00;;;6.93;;
4464;SDS011;2245;48.136;13.428;2024-01-07T06:31:47;8.50;;;6.13;;
4464;SDS011;2245;48.136;13.428;2024-01-07T06:34:14;7.13;;;6.00;;
4464;SDS011;2245;48.136;13.428;2024-01-07T06:36:41;9.20;;;6.37;;
4464;SDS011;2245;48.136;13.428;2024-01-07T06:39:08;8.80;;;6.33;;
4464;SDS011;2245;48.136;13.428;2024-01-07T06:41:36;8.40;;;5.90;;
4464;SDS011;2245;48.136;13.428;2024-01-07T06:44:04;10.50;;;7.40;;
4464;SDS011;2245;48.136;13.428;2024-01-07T06:46:31;11.60;;;8.03;;
4464;SDS011;2245;48.136;13.428;2024-01-07T06:48:59;11.43;;;6.30;;
4464;SDS011;2245;48.136;13.428;2024-01-07T06:51:26;8.53;;;5.97;;
4464;SDS011;2245;48.136;13.428;2024-01-07T06:53:53;8.00;;;5.90;;
4464;SDS011;2245;48.136;13.428;2024-01-07T06:56:20;10.07;;;7.83;;
4464;SDS011;2245;48.136;13.428;2024-01-07T06:58:49;13.40;;;8.37;;
4464;SDS011;2245;48.136;13.428;2024-01-07T07:01:19;25.03;;;10.77;;
4464;SDS011;2245;48.136;13.428;2024-01-07T07:03:48;14.60;;;9.57;;
4464;SDS011;2245;48.136;13.428;2024-01-07T07:06:16;16.70;;;10.03;;
4464;SDS011;2245;48.136;13.428;2024-01-07T07:08:44;13.60;;;10.20;;
4464;SDS011;2245;48.136;13.428;2024-01-07T07:11:11;15.90;;;10.70;;
4464;SDS011;2245;48.136;13.428;2024-01-07T07:13:38;14.10;;;8.97;;
4464;SDS011;2245;48.136;13.428;2024-01-07T07:16:06;13.60;;;8.57;;
4464;SDS011;2245;48.136;13.428;2024-01-07T07:18:34;18.67;;;10.60;;
4464;SDS011;2245;48.136;13.428;2024-01-07T07:21:02;16.53;;;9.77;;
4464;SDS011;2245;48.136;13.428;2024-01-07T07:23:29;15.33;;;9.53;;
4464;SDS011;2245;48.136;13.428;2024-01-07T07:25:56;17.63;;;9.70;;
4464;SDS011;2245;48.136;13.428;2024-01-07T07:28:23;19.57;;;10.20;;
4464;SDS011;2245;48.136;13.428;2024-01-07T07:30:50;13.17;;;8.67;;
4464;SDS011;2245;48.136;13.428;2024-01-07T07:33:17;15.50;;;8.53;;
4464;SDS011;2245;48.136;13.428;2024-01-07T07:35:45;34.33;;;17.17;;
4464;SDS011;2245;48.136;13.428;2024-01-07T07:38:12;28.40;;;15.83;;
4464;SDS011;2245;48.136;13.428;2024-01-07T07:40:39;21.60;;;14.63;;
4464;SDS011;2245;48.136;13.428;2024-01-07T07:43:07;25.00;;;16.90;;
4464;SDS011;2245;48.136;13.428;2024-01-07T07:45:34;33.53;;;18.37;;
4464;SDS011;2245;48.136;13.428;2024-01-07T07:48:01;20.07;;;11.83;;
4464;SDS011;2245;48.136;13.428;2024-01-07T07:50:28;15.33;;;8.80;;
4464;SDS011;2245;48.136;13.428;2024-01-07T07:52:57;14.70;;;8.13;;
4464;SDS011;2245;48.136;13.428;2024-01-07T07:55:24;12.27;;;8.23;;
4464;SDS011;2245;48.136;13.428;2024-01-07T07:57:52;12.60;;;8.23;;
4464;SDS011;2245;48.136;13.428;2024-01-07T08:00:19;15.90;;;9.63;;
4464;SDS011;2245;48.136;13.428;2024-01-07T08:02:46;11.47;;;8.53;;
4464;SDS011;2245;48.136;13.428;2024-01-07T08:05:13;8.30;;;5.90;;
4464;SDS011;2245;48.136;13.428;2024-01-07T08:07:40;9.57;;;5.17;;
4464;SDS011;2245;48.136;13.428;2024-01-07T08:10:09;7.77;;;4.53;;
4464;SDS011;2245;48.136;13.428;2024-01-07T08:12:36;6.80;;;4.70;;
4464;SDS011;2245;48.136;13.428;2024-01-07T08:15:04;9.10;;;5.50;;
4464;SDS011;2245;48.136;13.428;2024-01-07T08:17:32;9.00;;;5.40;;
4464;SDS011;2245;48.136;13.428;2024-01-07T08:19:59;3.33;;;3.03;;
4464;SDS011;2245;48.136;13.428;2024-01-07T08:22:29;7.83;;;5.23;;
4464;SDS011;2245;48.136;13.428;2024-01-07T08:24:56;7.10;;;5.07;;
4464;SDS011;2245;48.136;13.428;2024-01-07T08:27:24;13.27;;;7.27;;
4464;SDS011;2245;48.136;13.428;2024-01-07T08:29:52;9.20;;;6.13;;
4464;SDS011;2245;48.136;13.428;2024-01-07T08:32:19;7.20;;;5.90;;
4464;SDS011;2245;48.136;13.428;2024-01-07T08:34:48;7.80;;;5.60;;
4464;SDS011;2245;48.136;13.428;2024-01-07T08:37:15;28.43;;;15.70;;
4464;SDS011;2245;48.136;13.428;2024-01-07T08:39:42;19.43;;;10.23;;
4464;SDS011;2245;48.136;13.428;2024-01-07T08:42:09;17.00;;;8.87;;
4464;SDS011;2245;48.136;13.428;2024-01-07T08:44:37;22.47;;;9.97;;
4464;SDS011;2245;48.136;13.428;2024-01-07T08:47:05;20.83;;;9.17;;
4464;SDS011;2245;48.136;13.428;2024-01-07T08:49:32;21.30;;;9.20;;
4464;SDS011;2245;48.136;13.428;2024-01-07T08:51:59;22.17;;;9.33;;
4464;SDS011;2245;48.136;13.428;2024-01-07T08:54:26;28.60;;;11.03;;
4464;SDS011;2245;48.136;13.428;2024-01-07T08:56:53;25.90;;;10.57;;
4464;SDS011;2245;48.136;13.428;2024-01-07T08:59:20;13.30;;;7.13;;
4464;SDS011;2245;48.136;13.428;2024-01-07T09:01:49;8.87;;;6.03;;
4464;SDS011;2245;48.136;13.428;2024-01-07T09:04:16;13.70;;;7.30;;
4464;SDS011;2245;48.136;13.428;2024-01-07T09:06:43;11.00;;;6.60;;
4464;SDS011;2245;48.136;13.428;2024-01-07T09:09:10;10.60;;;6.00;;
4464;SDS011;2245;48.136;13.428;2024-01-07T09:11:38;19.97;;;11.13;;
4464;SDS011;2245;48.136;13.428;2024-01-07T09:14:05;15.30;;;7.90;;
4464;SDS011;2245;48.136;13.428;2024-01-07T09:16:32;13.67;;;8.13;;
4464;SDS011;2245;48.136;13.428;2024-01-07T09:19:00;11.83;;;7.40;;
4464;SDS011;2245;48.136;13.428;2024-01-07T09:21:27;12.40;;;7.40;;
4464;SDS011;2245;48.136;13.428;2024-01-07T09:23:54;12.07;;;6.40;;
4464;SDS011;2245;48.136;13.428;2024-01-07T09:26:21;22.13;;;8.53;;
4464;SDS011;2245;48.136;13.428;2024-01-07T09:28:48;10.77;;;6.30;;
4464;SDS011;2245;48.136;13.428;2024-01-07T09:31:15;11.83;;;7.07;;
4464;SDS011;2245;48.136;13.428;2024-01-07T09:33:42;15.10;;;8.40;;
4464;SDS011;2245;48.136;13.428;2024-01-07T09:36:13;19.80;;;10.10;;
4464;SDS011;2245;48.136;13.428;2024-01-07T09:38:44;10.93;;;7.73;;
4464;SDS011;2245;48.136;13.428;2024-01-07T09:41:11;13.67;;;6.40;;
4464;SDS011;2245;48.136;13.428;2024-01-07T09:43:38;5.23;;;4.07;;
4464;SDS011;2245;48.136;13.428;2024-01-07T09:46:05;8.13;;;5.97;;
4464;SDS011;2245;48.136;13.428;2024-01-07T09:48:33;6.67;;;4.53;;
4464;SDS011;2245;48.136;13.428;2024-01-07T09:51:00;7.63;;;5.00;;
4464;SDS011;2245;48.136;13.428;2024-01-07T09:53:30;5.60;;;4.77;;
4464;SDS011;2245;48.136;13.428;2024-01-07T09:56:01;7.23;;;5.67;;
4464;SDS011;2245;48.136;13.428;2024-01-07T09:58:34;10.80;;;6.03;;
4464;SDS011;2245;48.136;13.428;2024-01-07T10:01:01;7.87;;;5.20;;
4464;SDS011;2245;48.136;13.428;2024-01-07T10:03:30;6.93;;;5.77;;
4464;SDS011;2245;48.136;13.428;2024-01-07T10:05:57;9.17;;;5.93;;
4464;SDS011;2245;48.136;13.428;2024-01-07T10:08:24;11.50;;;6.30;;
4464;SDS011;2245;48.136;13.428;2024-01-07T10:10:51;7.87;;;4.90;;
4464;SDS011;2245;48.136;13.428;2024-01-07T10:13:19;6.33;;;4.80;;
4464;SDS011;2245;48.136;13.428;2024-01-07T10:15:47;4.90;;;4.50;;
4464;SDS011;2245;48.136;13.428;2024-01-07T10:18:14;6.57;;;3.70;;
4464;SDS011;2245;48.136;13.428;2024-01-07T10:20:41;11.73;;;4.07;;
4464;SDS011;2245;48.136;13.428;2024-01-07T10:23:08;13.30;;;8.00;;
4464;SDS011;2245;48.136;13.428;2024-01-07T10:25:35;16.30;;;14.03;;
4464;SDS011;2245;48.136;13.428;2024-01-07T10:28:04;8.37;;;6.40;;
4464;SDS011;2245;48.136;13.428;2024-01-07T10:30:32;9.10;;;6.50;;
4464;SDS011;2245;48.136;13.428;2024-01-07T10:32:59;9.00;;;5.23;;
4464;SDS011;2245;48.136;13.428;2024-01-07T10:35:27;15.53;;;7.60;;
4464;SDS011;2245;48.136;13.428;2024-01-07T10:37:55;11.60;;;7.10;;
4464;SDS011;2245;48.136;13.428;2024-01-07T10:40:23;11.73;;;10.53;;
4464;SDS011;2245;48.136;13.428;2024-01-07T10:42:50;7.10;;;6.40;;
4464;SDS011;2245;48.136;13.428;2024-01-07T10:45:19;6.27;;;5.00;;
4464;SDS011;2245;48.136;13.428;2024-01-07T10:47:48;10.93;;;5.70;;
4464;SDS011;2245;48.136;13.428;2024-01-07T10:50:16;6.60;;;4.20;;
4464;SDS011;2245;48.136;13.428;2024-01-07T10:52:43;10.40;;;4.67;;
4464;SDS011;2245;48.136;13.428;2024-01-07T10:55:15;6.40;;;4.70;;
4464;SDS011;2245;48.136;13.428;2024-01-07T10:57:46;10.50;;;6.20;;
4464;SDS011;2245;48.136;13.428;2024-01-07T11:00:15;19.53;;;8.33;;
4464;SDS011;2245;48.136;13.428;2024-01-07T11:02:51;6.40;;;4.40;;
4464;SDS011;2245;48.136;13.428;2024-01-07T11:05:25;6.90;;;4.50;;
4464;SDS011;2245;48.136;13.428;2024-01-07T11:07:57;4.63;;;3.70;;
4464;SDS011;2245;48.136;13.428;2024-01-07T11:10:30;6.33;;;4.27;;
4464;SDS011;2245;48.136;13.428;2024-01-07T11:13:01;5.90;;;4.97;;
4464;SDS011;2245;48.136;13.428;2024-01-07T11:18:23;5.73;;;4.60;;
4464;SDS011;2245;48.136;13.428;2024-01-07T11:20:50;6.33;;;4.53;;
4464;SDS011;2245;48.136;13.428;2024-01-07T11:23:27;10.33;;;6.67;;
4464;SDS011;2245;48.136;13.428;2024-01-07T11:25:56;5.97;;;3.90;;
4464;SDS011;2245;48.136;13.428;2024-01-07T11:28:42;6.93;;;4.20;;
4464;SDS011;2245;48.136;13.428;2024-01-07T11:31:10;7.43;;;4.67;;
4464;SDS011;2245;48.136;13.428;2024-01-07T11:33:38;8.60;;;4.97;;
4464;SDS011;2245;48.136;13.428;2024-01-07T11:36:05;10.37;;;4.97;;
4464;SDS011;2245;48.136;13.428;2024-01-07T11:38:33;11.40;;;5.23;;
4464;SDS011;2245;48.136;13.428;2024-01-07T11:41:02;7.13;;;4.33;;
4464;SDS011;2245;48.136;13.428;2024-01-07T11:43:30;6.27;;;4.43;;
4464;SDS011;2245;48.136;13.428;2024-01-07T11:45:59;6.53;;;4.67;;
4464;SDS011;2245;48.136;13.428;2024-01-07T11:48:26;7.80;;;6.00;;
4464;SDS011;2245;48.136;13.428;2024-01-07T11:50:54;13.80;;;9.23;;
4464;SDS011;2245;48.136;13.428;2024-01-07T11:53:21;15.40;;;9.20;;
4464;SDS011;2245;48.136;13.428;2024-01-07T11:55:48;26.47;;;17.90;;
4464;SDS011;2245;48.136;13.428;2024-01-07T11:58:16;15.57;;;10.30;;
4464;SDS011;2245;48.136;13.428;2024-01-07T12:00:43;204.17;;;75.30;;
4464;SDS011;2245;48.136;13.428;2024-01-07T12:03:10;16.40;;;7.73;;
4464;SDS011;2245;48.136;13.428;2024-01-07T12:05:37;169.77;;;52.27;;
4464;SDS011;2245;48.136;13.428;2024-01-07T12:08:07;15.37;;;9.33;;
4464;SDS011;2245;48.136;13.428;2024-01-07T12:10:34;32.90;;;16.40;;
4464;SDS011;2245;48.136;13.428;2024-01-07T12:13:01;13.80;;;9.90;;
4464;SDS011;2245;48.136;13.428;2024-01-07T12:15:29;10.03;;;6.47;;
4464;SDS011;2245;48.136;13.428;2024-01-07T12:17:56;85.27;;;32.13;;
4464;SDS011;2245;48.136;13.428;2024-01-07T12:20:24;33.93;;;17.93;;
4464;SDS011;2245;48.136;13.428;2024-01-07T12:22:54;12.93;;;8.13;;
4464;SDS011;2245;48.136;13.428;2024-01-07T12:25:24;13.93;;;6.20;;
4464;SDS011;2245;48.136;13.428;2024-01-07T12:27:51;8.87;;;5.90;;
4464;SDS011;2245;48.136;13.428;2024-01-07T12:30:19;10.20;;;6.63;;
4464;SDS011;2245;48.136;13.428;2024-01-07T12:32:46;11.07;;;6.90;;
4464;SDS011;2245;48.136;13.428;2024-01-07T12:35:18;11.20;;;6.30;;
4464;SDS011;2245;48.136;13.428;2024-01-07T12:38:05;9.43;;;7.03;;
4464;SDS011;2245;48.136;13.428;2024-01-07T12:40:33;12.03;;;6.60;;
4464;SDS011;2245;48.136;13.428;2024-01-07T12:43:01;12.67;;;6.40;;
4464;SDS011;2245;48.136;13.428;2024-01-07T12:45:29;11.13;;;7.47;;
4464;SDS011;2245;48.136;13.428;2024-01-07T12:47:56;14.77;;;8.83;;
4464;SDS011;2245;48.136;13.428;2024-01-07T12:50:25;14.23;;;7.20;;
4464;SDS011;2245;48.136;13.428;2024-01-07T12:52:55;9.53;;;6.53;;
4464;SDS011;2245;48.136;13.428;2024-01-07T12:55:22;15.10;;;9.00;;
4464;SDS011;2245;48.136;13.428;2024-01-07T12:57:51;9.97;;;7.80;;
4464;SDS011;2245;48.136;13.428;2024-01-07T13:00:19;12.27;;;7.37;;
4464;SDS011;2245;48.136;13.428;2024-01-07T13:02:46;11.37;;;7.50;;
4464;SDS011;2245;48.136;13.428;2024-01-07T13:05:13;15.50;;;10.27;;
4464;SDS011;2245;48.136;13.428;2024-01-07T13:07:41;13.13;;;8.00;;
4464;SDS011;2245;48.136;13.428;2024-01-07T13:10:08;12.50;;;8.50;;
4464;SDS011;2245;48.136;13.428;2024-01-07T13:12:35;11.00;;;7.33;;
4464;SDS011;2245;48.136;13.428;2024-01-07T13:15:04;13.03;;;8.20;;
4464;SDS011;2245;48.136;13.428;2024-01-07T13:17:32;11.40;;;7.73;;
4464;SDS011;2245;48.136;13.428;2024-01-07T13:19:59;20.17;;;10.40;;
4464;SDS011;2245;48.136;13.428;2024-01-07T13:22:26;14.73;;;9.03;;
4464;SDS011;2245;48.136;13.428;2024-01-07T13:24:53;30.97;;;15.40;;
4464;SDS011;2245;48.136;13.428;2024-01-07T13:27:20;18.40;;;9.13;;
4464;SDS011;2245;48.136;13.428;2024-01-07T13:29:48;24.30;;;12.50;;
4464;SDS011;2245;48.136;13.428;2024-01-07T13:32:17;19.27;;;11.10;;
4464;SDS011;2245;48.136;13.428;2024-01-07T13:34:44;15.70;;;9.33;;
4464;SDS011;2245;48.136;13.428;2024-01-07T13:37:12;16.10;;;10.40;;
4464;SDS011;2245;48.136;13.428;2024-01-07T13:39:39;20.23;;;12.57;;
4464;SDS011;2245;48.136;13.428;2024-01-07T13:42:06;13.83;;;8.20;;
4464;SDS011;2245;48.136;13.428;2024-01-07T13:44:33;18.83;;;12.63;;
4464;SDS011;2245;48.136;13.428;2024-01-07T13:47:01;32.07;;;17.50;;
4464;SDS011;2245;48.136;13.428;2024-01-07T13:49:29;42.40;;;22.87;;
4464;SDS011;2245;48.136;13.428;2024-01-07T13:51:57;20.13;;;11.50;;
4464;SDS011;2245;48.136;13.428;2024-01-07T13:54:24;13.70;;;8.20;;
4464;SDS011;2245;48.136;13.428;2024-01-07T13:56:51;15.07;;;9.20;;
4464;SDS011;2245;48.136;13.428;2024-01-07T13:59:19;15.90;;;9.07;;
4464;SDS011;2245;48.136;13.428;2024-01-07T14:01:48;14.47;;;9.30;;
4464;SDS011;2245;48.136;13.428;2024-01-07T14:04:15;14.10;;;8.57;;
4464;SDS011;2245;48.136;13.428;2024-01-07T14:06:44;15.47;;;9.90;;
4464;SDS011;2245;48.136;13.428;2024-01-07T14:09:12;15.73;;;9.93;;
4464;SDS011;2245;48.136;13.428;2024-01-07T14:11:39;16.20;;;8.97;;
4464;SDS011;2245;48.136;13.428;2024-01-07T14:14:06;12.77;;;8.63;;
4464;SDS011;2245;48.136;13.428;2024-01-07T14:16:34;11.73;;;7.67;;
4464;SDS011;2245;48.136;13.428;2024-01-07T14:19:01;12.40;;;7.93;;
4464;SDS011;2245;48.136;13.428;2024-01-07T14:21:28;16.20;;;8.50;;
4464;SDS011;2245;48.136;13.428;2024-01-07T14:23:57;18.40;;;10.73;;
4464;SDS011;2245;48.136;13.428;2024-01-07T14:26:24;11.30;;;7.80;;
4464;SDS011;2245;48.136;13.428;2024-01-07T14:28:51;8.77;;;5.70;;
4464;SDS011;2245;48.136;13.428;2024-01-07T14:31:18;11.07;;;7.20;;
4464;SDS011;2245;48.136;13.428;2024-01-07T14:33:45;20.40;;;9.70;;
4464;SDS011;2245;48.136;13.428;2024-01-07T14:36:14;23.33;;;10.93;;
4464;SDS011;2245;48.136;13.428;2024-01-07T14:38:43;25.20;;;10.23;;
4464;SDS011;2245;48.136;13.428;2024-01-07T14:41:14;15.73;;;8.13;;
4464;SDS011;2245;48.136;13.428;2024-01-07T14:43:41;32.13;;;13.90;;
4464;SDS011;2245;48.136;13.428;2024-01-07T14:46:08;23.43;;;9.93;;
4464;SDS011;2245;48.136;13.428;2024-01-07T14:48:35;22.80;;;11.70;;
4464;SDS011;2245;48.136;13.428;2024-01-07T14:51:02;21.33;;;11.17;;
4464;SDS011;2245;48.136;13.428;2024-01-07T14:53:30;18.07;;;9.20;;
4464;SDS011;2245;48.136;13.428;2024-01-07T14:55:57;19.73;;;9.57;;
4464;SDS011;2245;48.136;13.428;2024-01-07T14:58:25;16.73;;;8.47;;